createdAt,value
2017-10-06T00:01:37.094Z,3.30
2017-10-06T00:04:44.072Z,2.60
2017-10-06T00:07:48.359Z,2.60
2017-10-06T00:10:53.697Z,3.03
2017-10-06T00:13:56.897Z,2.87
2017-10-06T00:16:59.834Z,2.07
2017-10-06T00:20:04.674Z,2.90
2017-10-06T00:26:19.193Z,2.40
2017-10-06T00:29:23.375Z,2.67
2017-10-06T00:32:29.213Z,2.87
2017-10-06T00:35:35.631Z,2.20
2017-10-06T00:38:39.666Z,2.50
2017-10-06T00:41:47.354Z,2.40
2017-10-06T00:44:50.848Z,3.13
2017-10-06T00:47:57.225Z,3.00
2017-10-06T00:51:00.642Z,2.40
2017-10-06T00:54:03.484Z,2.23
2017-10-06T00:57:06.307Z,3.20
2017-10-06T01:00:12.494Z,3.13
2017-10-06T01:03:17.070Z,3.23
2017-10-06T01:06:21.621Z,1.90
2017-10-06T01:09:25.783Z,3.50
2017-10-06T01:12:29.841Z,3.00
2017-10-06T01:15:33.396Z,2.80
2017-10-06T01:18:36.519Z,2.60
2017-10-06T01:21:40.398Z,2.93
2017-10-06T01:24:44.272Z,3.67
2017-10-06T01:27:51.668Z,2.70
2017-10-06T01:30:54.826Z,3.20
2017-10-06T01:33:56.657Z,3.10
2017-10-06T01:36:58.275Z,2.60
2017-10-06T01:40:02.266Z,2.57
2017-10-06T01:43:06.735Z,3.30
2017-10-06T01:46:11.024Z,2.73
2017-10-06T01:49:13.833Z,2.33
2017-10-06T01:52:19.653Z,2.60
2017-10-06T01:55:23.316Z,2.80
2017-10-06T01:58:25.005Z,4.07
2017-10-06T02:01:26.816Z,2.63
2017-10-06T02:04:30.788Z,2.87
2017-10-06T02:07:33.432Z,3.60
2017-10-06T02:10:36.121Z,2.63
2017-10-06T02:13:39.243Z,2.70
2017-10-06T02:16:41.683Z,2.40
2017-10-06T02:19:45.649Z,3.43
2017-10-06T02:22:48.533Z,3.50
2017-10-06T02:25:53.231Z,2.40
2017-10-06T02:28:57.310Z,3.17
2017-10-06T02:31:58.968Z,2.17
2017-10-06T02:35:00.660Z,3.70
2017-10-06T02:38:03.153Z,2.97
2017-10-06T02:41:06.460Z,3.03
2017-10-06T02:44:10.805Z,2.60
2017-10-06T02:47:14.115Z,3.07
2017-10-06T02:50:15.752Z,3.67
2017-10-06T02:53:17.572Z,3.47
2017-10-06T02:56:23.349Z,2.50
2017-10-06T03:02:35.435Z,2.90
2017-10-06T03:05:37.975Z,2.80
2017-10-06T03:08:39.825Z,2.67
2017-10-06T03:11:42.624Z,4.33
2017-10-06T03:14:44.236Z,3.10
2017-10-06T03:17:46.830Z,3.23
2017-10-06T03:20:49.378Z,2.50
2017-10-06T03:23:51.173Z,4.37
2017-10-06T03:26:52.958Z,2.17
2017-10-06T03:29:56.748Z,2.43
2017-10-06T03:32:58.591Z,3.23
2017-10-06T03:36:03.072Z,2.47
2017-10-06T03:42:13.262Z,2.70
2017-10-06T03:45:15.077Z,2.80
2017-10-06T03:48:18.709Z,2.83
2017-10-06T03:51:26.218Z,2.37
2017-10-06T03:54:28.066Z,3.03
2017-10-06T03:57:29.701Z,2.60
2017-10-06T04:00:31.400Z,2.33
2017-10-06T04:03:34.608Z,2.60
2017-10-06T04:06:39.238Z,3.40
2017-10-06T04:09:43.438Z,2.40
2017-10-06T04:12:45.705Z,2.70
2017-10-06T04:15:48.278Z,3.53
2017-10-06T04:18:57.819Z,2.80
2017-10-06T04:22:01.192Z,1.90
2017-10-06T04:25:02.803Z,2.50
2017-10-06T04:28:04.516Z,2.90
2017-10-06T04:31:06.442Z,3.37
2017-10-06T04:34:08.874Z,2.63
2017-10-06T04:37:11.695Z,2.73
2017-10-06T04:40:17.975Z,2.80
2017-10-06T04:43:21.198Z,2.87
2017-10-06T04:46:22.961Z,3.40
2017-10-06T04:49:25.737Z,2.93
2017-10-06T04:52:28.806Z,3.07
2017-10-06T04:55:33.064Z,3.00
2017-10-06T04:58:37.501Z,2.70
2017-10-06T05:01:50.882Z,3.20
2017-10-06T05:04:54.359Z,2.73
2017-10-06T05:08:01.235Z,2.50
2017-10-06T05:11:11.268Z,2.70
2017-10-06T05:14:15.061Z,3.30
2017-10-06T05:17:19.774Z,3.50
2017-10-06T05:20:27.117Z,2.57
2017-10-06T05:23:33.555Z,3.10
2017-10-06T05:26:37.095Z,3.00
2017-10-06T05:29:43.457Z,3.03
2017-10-06T05:32:45.281Z,3.20
2017-10-06T05:35:55.278Z,3.20
2017-10-06T05:39:12.323Z,3.87
2017-10-06T05:42:20.663Z,3.47
2017-10-06T05:45:28.341Z,3.80
2017-10-06T05:48:54.413Z,2.63
2017-10-06T05:52:00.295Z,3.50
2017-10-06T05:55:02.711Z,2.90
2017-10-06T05:58:04.216Z,3.37
2017-10-06T06:01:05.793Z,3.50
2017-10-06T06:04:08.063Z,3.90
2017-10-06T06:07:10.370Z,3.53
2017-10-06T06:10:11.826Z,3.40
2017-10-06T06:13:13.404Z,3.10
2017-10-06T06:16:14.986Z,4.03
2017-10-06T06:19:16.525Z,3.00
2017-10-06T06:22:18.211Z,3.30
2017-10-06T06:25:19.787Z,3.30
2017-10-06T06:28:21.359Z,2.60
2017-10-06T06:31:23.655Z,2.33
2017-10-06T06:34:25.218Z,3.00
2017-10-06T06:37:26.723Z,3.00
2017-10-06T06:40:29.024Z,3.43
2017-10-06T06:43:30.591Z,3.03
2017-10-06T06:46:32.174Z,3.37
2017-10-06T06:52:42.132Z,3.10
2017-10-06T06:55:43.745Z,2.93
2017-10-06T06:58:45.291Z,2.90
2017-10-06T07:20:04.331Z,2.93
2017-10-06T07:23:06.579Z,3.43
2017-10-06T07:26:08.076Z,2.80
2017-10-06T07:29:10.409Z,3.63
2017-10-06T07:32:11.808Z,6.10
2017-10-06T07:35:13.965Z,2.80
2017-10-06T07:38:18.266Z,3.20
2017-10-06T07:41:34.367Z,3.00
2017-10-06T07:44:38.258Z,3.47
2017-10-06T07:47:58.845Z,3.70
2017-10-06T10:28:16.332Z,1.77
2017-10-06T10:32:56.797Z,2.13
2017-10-06T10:36:00.131Z,2.07
2017-10-06T12:54:39.820Z,2.47
2017-10-06T12:57:42.182Z,1.87
2017-10-06T13:00:43.976Z,1.80
2017-10-06T13:03:49.581Z,2.50
2017-10-06T13:07:09.121Z,2.20
2017-10-06T13:10:11.516Z,2.30
2017-10-06T13:13:21.156Z,3.00
2017-10-06T13:16:40.941Z,3.27
2017-10-06T13:19:54.650Z,3.20
2017-10-06T13:26:26.863Z,2.50
2017-10-06T13:29:40.182Z,3.47
2017-10-06T13:32:43.046Z,2.37
2017-10-06T13:35:55.000Z,2.07
2017-10-06T13:39:20.672Z,2.50
2017-10-06T13:42:23.180Z,2.37
2017-10-06T13:49:30.473Z,1.93
2017-10-06T15:22:01.872Z,2.60
2017-10-06T15:28:27.324Z,2.83
2017-10-06T15:31:41.994Z,3.80
2017-10-06T15:49:43.211Z,3.40
2017-10-06T15:53:30.673Z,3.30
2017-10-06T22:58:05.861Z,7.23
2017-10-06T23:01:14.394Z,7.60
2017-10-06T23:04:19.116Z,6.93
2017-10-06T23:07:21.508Z,7.67
2017-10-06T23:10:29.580Z,7.90
2017-10-06T23:13:39.886Z,7.60
2017-10-06T23:16:47.890Z,9.87
2017-10-06T23:19:50.315Z,11.70
2017-10-06T23:22:52.037Z,11.93
2017-10-06T23:29:32.874Z,12.47
2017-10-06T23:36:14.069Z,14.60
2017-10-06T23:39:38.059Z,13.20
2017-10-06T23:43:00.471Z,12.00
2017-10-06T23:46:04.537Z,11.73
2017-10-06T23:49:06.793Z,10.60
2017-10-06T23:52:20.681Z,10.50
2017-10-06T23:55:26.613Z,9.97
2017-10-06T23:58:40.419Z,9.93
